Time;durP1;ratioP1;P1;durP2;ratioP2;P2;SDS_P1;SDS_P2;PMS_P1;PMS_P2;Temp;Humidity;BMP_temperature;BMP_pressure;BME280_temperature;BME280_humidity;BME280_pressure;Samples;Min_cycle;Max_cycle;Signal;HPM_P1;HPM_P2
2024/02/21 00:02:19;;;;;;;13.82;4.95;;;;;;;;;;4999276;28;25072;-66
2024/02/21 00:04:45;;;;;;;13.35;5.30;;;;;;;;;;4995081;28;25061;-63
2024/02/21 00:07:12;;;;;;;17.02;5.95;;;;;;;;;;4997042;28;25137;-64
2024/02/21 00:09:37;;;;;;;16.33;5.75;;;;;;;;;;5001051;28;25125;-64
2024/02/21 00:12:05;;;;;;;20.15;4.97;;;;;;;;;;4999021;28;25068;-64
2024/02/21 00:14:31;;;;;;;18.30;5.60;;;;;;;;;;4995370;28;25074;-62
2024/02/21 00:16:57;;;;;;;16.45;5.68;;;;;;;;;;4986813;28;25068;-64
2024/02/21 00:19:23;;;;;;;16.48;5.68;;;;;;;;;;4998400;28;25065;-66
2024/02/21 00:21:49;;;;;;;13.40;4.85;;;;;;;;;;4994494;28;25141;-65
2024/02/21 00:24:15;;;;;;;16.60;4.95;;;;;;;;;;4993118;28;25097;-63
2024/02/21 00:26:41;;;;;;;15.15;4.93;;;;;;;;;;5004953;28;25050;-66
2024/02/21 00:29:07;;;;;;;19.42;5.10;;;;;;;;;;5002476;28;25063;-64
2024/02/21 00:31:33;;;;;;;19.80;5.88;;;;;;;;;;5000411;28;25085;-64
2024/02/21 00:33:59;;;;;;;13.75;5.30;;;;;;;;;;5004615;28;25144;-64
2024/02/21 00:36:26;;;;;;;21.23;5.25;;;;;;;;;;4998877;28;25049;-65
2024/02/21 00:38:52;;;;;;;18.73;4.85;;;;;;;;;;5008839;28;25142;-62
2024/02/21 00:41:18;;;;;;;13.75;4.45;;;;;;;;;;5006492;28;25127;-64
2024/02/21 00:43:44;;;;;;;16.05;4.60;;;;;;;;;;4997924;28;25066;-63
2024/02/21 00:46:10;;;;;;;14.75;4.57;;;;;;;;;;4996662;28;25128;-64
2024/02/21 00:48:36;;;;;;;21.92;5.43;;;;;;;;;;4983550;28;25066;-64
2024/02/21 00:51:02;;;;;;;21.52;5.10;;;;;;;;;;4999730;28;25077;-64
2024/02/21 00:53:28;;;;;;;17.77;4.57;;;;;;;;;;5010197;28;25090;-65
2024/02/21 00:55:54;;;;;;;20.90;4.88;;;;;;;;;;5001144;28;25147;-64
2024/02/21 00:58:20;;;;;;;14.65;4.15;;;;;;;;;;4987799;28;25058;-66
2024/02/21 01:00:46;;;;;;;16.35;4.78;;;;;;;;;;5004428;28;25121;-64
2024/02/21 01:03:12;;;;;;;12.68;4.47;;;;;;;;;;5009839;28;25045;-65
2024/02/21 01:05:38;;;;;;;17.63;5.07;;;;;;;;;;4997573;28;25172;-64
2024/02/21 01:08:04;;;;;;;24.52;5.07;;;;;;;;;;5008032;28;25045;-64
2024/02/21 01:10:30;;;;;;;13.32;4.82;;;;;;;;;;5001071;28;25078;-63
2024/02/21 01:12:56;;;;;;;15.95;4.28;;;;;;;;;;5004866;28;25084;-63
2024/02/21 01:15:22;;;;;;;13.77;4.85;;;;;;;;;;5006732;28;25075;-63
2024/02/21 01:17:49;;;;;;;22.30;4.57;;;;;;;;;;5000615;28;25081;-65
2024/02/21 01:20:15;;;;;;;20.08;5.72;;;;;;;;;;4999210;28;25082;-63
2024/02/21 01:22:41;;;;;;;13.65;4.15;;;;;;;;;;5004086;28;25092;-63
2024/02/21 01:25:08;;;;;;;14.18;4.93;;;;;;;;;;5007409;28;25116;-62
2024/02/21 01:27:34;;;;;;;19.63;5.38;;;;;;;;;;5001999;28;25135;-64
2024/02/21 01:29:59;;;;;;;14.45;4.78;;;;;;;;;;4999520;28;25050;-62
2024/02/21 01:32:25;;;;;;;17.92;4.60;;;;;;;;;;5005770;28;25140;-63
2024/02/21 01:34:52;;;;;;;19.17;4.28;;;;;;;;;;5002348;28;25067;-63
2024/02/21 01:37:18;;;;;;;13.75;4.95;;;;;;;;;;5004342;28;25091;-63
2024/02/21 01:39:44;;;;;;;11.68;4.85;;;;;;;;;;5000369;28;25185;-65
2024/02/21 01:42:09;;;;;;;13.15;4.72;;;;;;;;;;5002493;28;25052;-66
2024/02/21 01:44:37;;;;;;;19.05;5.32;;;;;;;;;;5000863;28;25132;-64
2024/02/21 01:47:04;;;;;;;13.38;4.40;;;;;;;;;;5002339;28;25068;-64
2024/02/21 01:49:30;;;;;;;12.73;4.60;;;;;;;;;;4998525;28;25063;-63
2024/02/21 01:51:56;;;;;;;12.63;5.20;;;;;;;;;;4998938;28;25119;-65
2024/02/21 01:54:22;;;;;;;16.70;5.40;;;;;;;;;;5003912;28;25103;-65
2024/02/21 01:56:49;;;;;;;19.70;5.60;;;;;;;;;;4983882;28;25047;-63
2024/02/21 01:59:16;;;;;;;12.65;4.65;;;;;;;;;;5003331;28;25068;-65
2024/02/21 02:01:42;;;;;;;14.95;5.30;;;;;;;;;;4995452;28;25077;-65
2024/02/21 02:04:08;;;;;;;13.27;5.18;;;;;;;;;;4996886;28;25075;-63
2024/02/21 02:06:35;;;;;;;12.18;4.97;;;;;;;;;;5004127;28;25139;-62
2024/02/21 02:09:01;;;;;;;17.73;5.07;;;;;;;;;;4997595;28;25104;-65
2024/02/21 02:11:27;;;;;;;17.30;5.75;;;;;;;;;;4989774;28;25056;-64
2024/02/21 02:13:53;;;;;;;16.92;6.18;;;;;;;;;;5005599;28;25057;-64
2024/02/21 02:16:19;;;;;;;15.88;5.40;;;;;;;;;;5000818;28;25056;-62
2024/02/21 02:18:45;;;;;;;18.20;6.07;;;;;;;;;;4999983;28;25079;-64
2024/02/21 02:21:14;;;;;;;14.05;6.60;;;;;;;;;;4996635;28;25129;-65
2024/02/21 02:23:40;;;;;;;12.45;5.22;;;;;;;;;;5002227;28;25110;-65
2024/02/21 02:26:07;;;;;;;13.20;5.68;;;;;;;;;;4998524;28;25053;-64
2024/02/21 02:28:33;;;;;;;13.38;5.55;;;;;;;;;;5002770;28;25071;-64
2024/02/21 02:30:59;;;;;;;16.58;5.82;;;;;;;;;;4996364;28;25466;-64
2024/02/21 02:33:25;;;;;;;17.40;5.00;;;;;;;;;;4999563;28;25092;-64
2024/02/21 02:35:51;;;;;;;13.35;5.20;;;;;;;;;;4994080;28;25162;-63
2024/02/21 02:38:17;;;;;;;15.63;5.43;;;;;;;;;;4997664;28;25104;-62
2024/02/21 02:40:43;;;;;;;15.82;4.72;;;;;;;;;;4997582;28;25108;-65
2024/02/21 02:43:09;;;;;;;13.45;5.60;;;;;;;;;;5000108;28;25109;-66
2024/02/21 02:45:36;;;;;;;13.55;5.60;;;;;;;;;;4998438;28;25064;-64
2024/02/21 02:48:02;;;;;;;15.38;5.38;;;;;;;;;;4995660;28;25127;-64
2024/02/21 02:50:28;;;;;;;14.95;5.57;;;;;;;;;;5003783;28;25060;-64
2024/02/21 02:52:54;;;;;;;9.95;4.93;;;;;;;;;;4998284;28;25064;-65
2024/02/21 02:55:20;;;;;;;11.32;6.05;;;;;;;;;;5002498;28;25053;-64
2024/02/21 02:57:46;;;;;;;13.30;5.40;;;;;;;;;;4996789;28;25164;-63
2024/02/21 03:00:13;;;;;;;11.93;5.63;;;;;;;;;;4998635;28;25085;-64
2024/02/21 03:02:40;;;;;;;10.38;5.43;;;;;;;;;;4982421;28;25070;-64
2024/02/21 03:05:13;;;;;;;18.50;6.03;;;;;;;;;;4998086;28;25092;-63
2024/02/21 03:07:39;;;;;;;13.57;5.00;;;;;;;;;;4986655;28;25097;-63
2024/02/21 03:10:05;;;;;;;10.63;5.10;;;;;;;;;;5009220;28;25090;-64
2024/02/21 03:12:31;;;;;;;12.98;5.85;;;;;;;;;;5011446;28;25044;-64
2024/02/21 03:14:57;;;;;;;15.38;4.78;;;;;;;;;;5014784;28;25070;-65
2024/02/21 03:17:23;;;;;;;16.00;6.00;;;;;;;;;;4994515;28;25094;-64
2024/02/21 03:19:49;;;;;;;17.73;5.45;;;;;;;;;;4996390;28;25141;-64
2024/02/21 03:22:15;;;;;;;16.30;5.35;;;;;;;;;;5001359;28;25166;-64
2024/02/21 03:24:42;;;;;;;17.55;6.28;;;;;;;;;;4997575;28;25047;-64
2024/02/21 03:27:08;;;;;;;14.48;6.43;;;;;;;;;;5001355;28;25130;-64
2024/02/21 03:29:34;;;;;;;14.48;5.88;;;;;;;;;;5003860;28;25074;-64
2024/02/21 03:32:00;;;;;;;11.45;5.90;;;;;;;;;;5007428;28;25047;-64
2024/02/21 03:34:26;;;;;;;12.63;7.63;;;;;;;;;;5004213;28;25078;-64
2024/02/21 03:36:52;;;;;;;12.18;6.38;;;;;;;;;;4981841;28;25062;-64
2024/02/21 03:39:18;;;;;;;16.70;7.78;;;;;;;;;;4994878;28;25047;-64
2024/02/21 03:41:44;;;;;;;11.85;7.40;;;;;;;;;;4999410;28;25053;-63
2024/02/21 03:44:10;;;;;;;18.35;7.00;;;;;;;;;;4998502;28;25060;-63
2024/02/21 03:46:36;;;;;;;11.48;6.22;;;;;;;;;;4998944;28;25059;-63
2024/02/21 03:49:02;;;;;;;13.50;6.53;;;;;;;;;;4996582;28;25065;-64
2024/02/21 03:51:28;;;;;;;10.73;6.00;;;;;;;;;;4982546;28;25131;-64
2024/02/21 03:53:54;;;;;;;12.35;6.18;;;;;;;;;;5001004;28;25323;-64
2024/02/21 03:56:20;;;;;;;13.88;6.88;;;;;;;;;;5003256;28;25107;-63
2024/02/21 03:58:46;;;;;;;13.30;6.88;;;;;;;;;;5000091;28;25074;-62
2024/02/21 04:01:12;;;;;;;10.25;6.35;;;;;;;;;;5000268;28;25089;-65
2024/02/21 04:03:38;;;;;;;14.77;6.93;;;;;;;;;;4995888;28;25050;-62
2024/02/21 04:06:04;;;;;;;16.33;6.93;;;;;;;;;;4995239;28;25458;-65
2024/02/21 04:08:30;;;;;;;13.77;6.90;;;;;;;;;;4997265;28;25123;-64
2024/02/21 04:10:56;;;;;;;14.38;6.95;;;;;;;;;;4998354;28;25168;-62
2024/02/21 04:13:22;;;;;;;12.73;6.65;;;;;;;;;;4999185;28;25062;-63
2024/02/21 04:15:48;;;;;;;11.55;6.43;;;;;;;;;;5003281;28;25156;-64
2024/02/21 04:18:15;;;;;;;16.08;6.05;;;;;;;;;;4995305;28;25059;-63
2024/02/21 04:20:41;;;;;;;12.82;7.00;;;;;;;;;;5000778;28;25100;-64
2024/02/21 04:23:07;;;;;;;9.93;6.45;;;;;;;;;;4994941;28;25085;-64
2024/02/21 04:25:33;;;;;;;13.50;6.85;;;;;;;;;;5003161;28;25103;-63
2024/02/21 04:27:59;;;;;;;10.25;6.53;;;;;;;;;;4997852;28;25141;-65
2024/02/21 04:30:25;;;;;;;13.05;7.07;;;;;;;;;;5004272;28;25067;-65
2024/02/21 04:32:51;;;;;;;13.02;7.50;;;;;;;;;;5002931;28;25081;-64
2024/02/21 04:35:17;;;;;;;15.07;7.82;;;;;;;;;;4993327;28;25128;-63
2024/02/21 04:37:44;;;;;;;18.23;7.97;;;;;;;;;;4979958;28;25174;-64
2024/02/21 04:40:10;;;;;;;17.67;7.75;;;;;;;;;;4991309;28;25103;-64
2024/02/21 04:42:36;;;;;;;13.65;8.10;;;;;;;;;;4998925;28;25149;-64
2024/02/21 04:45:03;;;;;;;16.50;8.07;;;;;;;;;;5002442;28;25056;-63
2024/02/21 04:47:29;;;;;;;13.77;7.93;;;;;;;;;;4997339;28;25048;-61
2024/02/21 04:49:55;;;;;;;16.52;8.20;;;;;;;;;;4998918;28;25151;-64
2024/02/21 04:52:21;;;;;;;15.82;8.35;;;;;;;;;;4998794;28;25147;-63
2024/02/21 04:54:47;;;;;;;27.90;10.13;;;;;;;;;;4997408;28;25074;-63
2024/02/21 04:57:16;;;;;;;23.17;9.70;;;;;;;;;;4993979;28;25076;-63
2024/02/21 04:59:42;;;;;;;21.85;9.55;;;;;;;;;;4996769;28;25064;-64
2024/02/21 05:02:08;;;;;;;19.27;9.80;;;;;;;;;;4986008;28;25087;-62
2024/02/21 05:04:36;;;;;;;22.85;10.13;;;;;;;;;;4981840;28;25099;-63
2024/02/21 05:07:02;;;;;;;24.70;10.15;;;;;;;;;;4997998;28;25069;-65
2024/02/21 05:09:28;;;;;;;24.40;11.35;;;;;;;;;;5000565;28;25159;-63
2024/02/21 05:11:54;;;;;;;28.80;11.40;;;;;;;;;;5003469;28;25058;-64
2024/02/21 05:14:20;;;;;;;24.25;11.15;;;;;;;;;;5000436;28;25050;-63
2024/02/21 05:16:46;;;;;;;24.13;11.30;;;;;;;;;;4998055;28;25108;-62
2024/02/21 05:19:12;;;;;;;23.73;10.88;;;;;;;;;;5008827;28;25077;-63
2024/02/21 05:21:38;;;;;;;21.58;9.82;;;;;;;;;;5000286;28;25055;-65
2024/02/21 05:24:04;;;;;;;20.85;10.25;;;;;;;;;;5007249;28;25158;-64
2024/02/21 05:26:30;;;;;;;26.38;10.65;;;;;;;;;;5006720;28;25063;-64
2024/02/21 05:28:56;;;;;;;21.90;9.95;;;;;;;;;;5002840;28;25186;-64
2024/02/21 05:31:22;;;;;;;25.52;10.38;;;;;;;;;;5008379;28;25070;-64
2024/02/21 05:33:48;;;;;;;24.30;11.35;;;;;;;;;;5013878;28;25065;-63
2024/02/21 05:36:14;;;;;;;27.85;10.80;;;;;;;;;;5010247;28;25046;-64
2024/02/21 05:38:40;;;;;;;33.65;12.77;;;;;;;;;;5007552;28;25128;-63
2024/02/21 05:41:06;;;;;;;21.65;10.38;;;;;;;;;;5005462;28;25131;-62
2024/02/21 05:43:33;;;;;;;29.95;12.63;;;;;;;;;;5008752;28;25063;-64
2024/02/21 05:45:59;;;;;;;34.22;12.68;;;;;;;;;;5006691;28;25090;-63
2024/02/21 05:48:25;;;;;;;28.25;12.38;;;;;;;;;;5009126;28;25059;-63
2024/02/21 05:50:51;;;;;;;26.88;11.82;;;;;;;;;;5007117;28;25097;-62
2024/02/21 05:53:17;;;;;;;28.58;12.30;;;;;;;;;;4998252;28;25072;-63
2024/02/21 05:55:44;;;;;;;27.27;13.60;;;;;;;;;;5005804;28;25081;-63
2024/02/21 05:58:13;;;;;;;26.70;11.85;;;;;;;;;;5001403;28;25054;-63
2024/02/21 06:00:39;;;;;;;30.52;12.27;;;;;;;;;;5003629;28;25066;-65
2024/02/21 06:03:05;;;;;;;27.92;12.27;;;;;;;;;;5004566;28;25093;-64
2024/02/21 06:05:32;;;;;;;28.75;12.98;;;;;;;;;;5002156;28;25107;-63
2024/02/21 06:07:58;;;;;;;34.10;13.50;;;;;;;;;;5001162;28;25060;-65
2024/02/21 06:10:24;;;;;;;26.02;12.85;;;;;;;;;;4999727;28;25062;-62
2024/02/21 06:12:50;;;;;;;23.55;12.57;;;;;;;;;;5007079;28;25068;-63
2024/02/21 06:15:16;;;;;;;28.73;13.40;;;;;;;;;;4997825;28;25066;-63
2024/02/21 06:17:42;;;;;;;23.23;12.43;;;;;;;;;;5006197;28;25061;-63
2024/02/21 06:20:08;;;;;;;29.52;13.20;;;;;;;;;;5002448;28;25095;-63
2024/02/21 06:22:34;;;;;;;27.00;13.00;;;;;;;;;;5002599;28;25072;-63
2024/02/21 06:25:00;;;;;;;29.77;14.40;;;;;;;;;;4999926;28;25069;-65
2024/02/21 06:27:26;;;;;;;26.00;13.82;;;;;;;;;;5002928;28;25072;-65
2024/02/21 06:29:52;;;;;;;29.02;14.20;;;;;;;;;;5003146;28;25158;-61
2024/02/21 06:32:18;;;;;;;26.75;14.00;;;;;;;;;;5002468;28;25084;-64
2024/02/21 06:34:44;;;;;;;28.63;14.25;;;;;;;;;;5003909;28;25079;-64
2024/02/21 06:37:10;;;;;;;31.27;15.05;;;;;;;;;;5004712;28;25064;-63
2024/02/21 06:39:37;;;;;;;37.35;16.58;;;;;;;;;;5000530;28;25101;-64
2024/02/21 06:42:04;;;;;;;40.67;16.20;;;;;;;;;;5001226;28;25152;-64
2024/02/21 06:44:31;;;;;;;36.30;16.35;;;;;;;;;;4998807;28;25088;-63
2024/02/21 06:46:58;;;;;;;34.58;16.52;;;;;;;;;;5004657;28;25104;-64
2024/02/21 06:49:25;;;;;;;32.90;16.00;;;;;;;;;;4997536;28;25087;-63
2024/02/21 06:51:50;;;;;;;40.08;17.27;;;;;;;;;;5005733;28;25149;-63
2024/02/21 06:54:16;;;;;;;33.38;16.63;;;;;;;;;;4999734;28;25065;-62
2024/02/21 06:56:42;;;;;;;37.30;16.00;;;;;;;;;;5003432;28;25057;-63
2024/02/21 06:59:08;;;;;;;29.15;16.02;;;;;;;;;;4996609;28;25115;-63
2024/02/21 07:01:34;;;;;;;29.35;15.35;;;;;;;;;;4986001;28;25050;-64
2024/02/21 07:04:00;;;;;;;34.55;17.80;;;;;;;;;;5002224;28;25058;-64
2024/02/21 07:06:26;;;;;;;33.50;17.05;;;;;;;;;;4986219;28;25145;-63
2024/02/21 07:08:53;;;;;;;35.90;17.52;;;;;;;;;;5000467;28;25061;-63
2024/02/21 07:11:19;;;;;;;32.50;16.77;;;;;;;;;;4998403;28;25085;-64
2024/02/21 07:13:44;;;;;;;30.77;15.55;;;;;;;;;;5004143;28;25101;-62
2024/02/21 07:16:11;;;;;;;30.80;15.05;;;;;;;;;;5001936;28;25055;-65
2024/02/21 07:18:37;;;;;;;28.08;15.48;;;;;;;;;;4997344;28;25145;-63
2024/02/21 07:21:03;;;;;;;31.20;15.35;;;;;;;;;;4998322;28;25091;-63
2024/02/21 07:23:29;;;;;;;28.17;15.65;;;;;;;;;;5004581;28;25148;-62
2024/02/21 07:25:55;;;;;;;29.48;16.15;;;;;;;;;;4994269;28;25062;-64
2024/02/21 07:28:21;;;;;;;32.70;15.88;;;;;;;;;;4982429;28;25069;-64
2024/02/21 07:30:47;;;;;;;29.27;16.48;;;;;;;;;;5001423;28;25164;-64
2024/02/21 07:33:13;;;;;;;29.42;15.65;;;;;;;;;;5001933;28;25127;-62
2024/02/21 07:35:41;;;;;;;25.35;15.15;;;;;;;;;;5001473;28;25073;-63
2024/02/21 07:38:08;;;;;;;26.50;14.43;;;;;;;;;;4999487;28;25075;-64
2024/02/21 07:40:34;;;;;;;28.35;15.52;;;;;;;;;;5001195;28;25142;-64
2024/02/21 07:43:00;;;;;;;30.40;15.90;;;;;;;;;;5003724;28;25177;-63
2024/02/21 07:45:26;;;;;;;33.35;16.75;;;;;;;;;;5002380;28;25131;-62
2024/02/21 07:47:52;;;;;;;28.73;15.70;;;;;;;;;;5003469;28;25059;-63
2024/02/21 07:50:18;;;;;;;32.45;16.75;;;;;;;;;;5004158;28;25077;-65
2024/02/21 07:52:44;;;;;;;30.13;15.15;;;;;;;;;;5009945;28;25068;-63
2024/02/21 07:55:10;;;;;;;32.53;15.63;;;;;;;;;;5005457;28;25109;-63
2024/02/21 07:57:36;;;;;;;25.83;14.93;;;;;;;;;;5005162;28;25094;-64
2024/02/21 08:00:04;;;;;;;24.55;13.98;;;;;;;;;;5001142;28;25138;-64
2024/02/21 08:02:29;;;;;;;29.55;14.88;;;;;;;;;;4987542;28;25060;-63
2024/02/21 08:04:55;;;;;;;31.08;15.52;;;;;;;;;;5007535;28;25050;-62
2024/02/21 08:07:21;;;;;;;30.58;15.70;;;;;;;;;;4999358;28;25090;-63
2024/02/21 08:09:47;;;;;;;33.60;15.32;;;;;;;;;;5005540;28;25128;-64
2024/02/21 08:12:13;;;;;;;32.55;16.02;;;;;;;;;;4999437;28;25076;-64
2024/02/21 08:14:39;;;;;;;30.88;13.63;;;;;;;;;;5002559;28;25071;-62
2024/02/21 08:17:06;;;;;;;29.55;16.27;;;;;;;;;;5001400;28;25066;-63
2024/02/21 08:19:32;;;;;;;30.73;16.58;;;;;;;;;;5002765;28;25095;-63
2024/02/21 08:21:58;;;;;;;32.05;16.75;;;;;;;;;;5003021;28;25105;-65
2024/02/21 08:24:24;;;;;;;30.02;16.20;;;;;;;;;;5003456;28;25157;-65
2024/02/21 08:26:50;;;;;;;23.80;16.67;;;;;;;;;;4996609;28;25073;-64
2024/02/21 08:29:16;;;;;;;29.10;17.42;;;;;;;;;;5000822;28;25138;-62
2024/02/21 08:31:42;;;;;;;29.42;15.18;;;;;;;;;;5004576;28;25151;-64
2024/02/21 08:34:08;;;;;;;28.20;15.15;;;;;;;;;;5003179;28;25140;-64
2024/02/21 08:36:35;;;;;;;25.77;15.45;;;;;;;;;;5002339;28;25072;-64
2024/02/21 08:39:02;;;;;;;26.95;15.30;;;;;;;;;;5000686;28;25062;-61
2024/02/21 08:41:28;;;;;;;26.45;13.82;;;;;;;;;;5000357;28;25082;-64
2024/02/21 08:43:54;;;;;;;27.98;15.02;;;;;;;;;;5002888;28;25135;-63
2024/02/21 08:46:21;;;;;;;33.67;15.13;;;;;;;;;;5002844;28;25068;-64
2024/02/21 08:48:47;;;;;;;24.92;14.27;;;;;;;;;;5001483;28;25066;-64
2024/02/21 08:51:13;;;;;;;30.02;14.90;;;;;;;;;;5001720;28;25397;-64
2024/02/21 08:53:39;;;;;;;23.60;14.15;;;;;;;;;;4999836;28;25072;-64
2024/02/21 08:56:07;;;;;;;25.80;14.18;;;;;;;;;;5006115;28;25084;-63
2024/02/21 08:58:33;;;;;;;26.15;13.95;;;;;;;;;;5005425;28;25079;-63
2024/02/21 09:00:59;;;;;;;21.75;13.50;;;;;;;;;;5006638;28;25083;-62
2024/02/21 09:03:25;;;;;;;30.92;13.40;;;;;;;;;;5006412;28;25060;-64
2024/02/21 09:05:51;;;;;;;28.00;14.73;;;;;;;;;;5005025;28;25074;-64
2024/02/21 09:08:18;;;;;;;29.58;13.90;;;;;;;;;;5001808;28;25149;-63
2024/02/21 09:10:44;;;;;;;26.27;14.10;;;;;;;;;;4998715;28;25128;-66
2024/02/21 09:13:10;;;;;;;25.73;13.15;;;;;;;;;;5003384;28;25041;-65
2024/02/21 09:15:36;;;;;;;21.65;12.18;;;;;;;;;;5006646;28;25080;-64
2024/02/21 09:18:02;;;;;;;22.25;12.68;;;;;;;;;;5008469;28;25061;-64
2024/02/21 09:20:29;;;;;;;23.25;12.05;;;;;;;;;;5005248;28;25058;-64
2024/02/21 09:22:55;;;;;;;19.52;11.73;;;;;;;;;;5003283;28;24709;-64
2024/02/21 09:25:21;;;;;;;26.85;12.38;;;;;;;;;;5005510;28;25143;-63
2024/02/21 09:27:47;;;;;;;20.83;12.10;;;;;;;;;;4995851;28;25080;-63
2024/02/21 09:30:13;;;;;;;18.77;11.77;;;;;;;;;;5001899;28;25148;-62
2024/02/21 09:32:39;;;;;;;18.35;11.05;;;;;;;;;;5000701;28;25132;-64
2024/02/21 09:35:05;;;;;;;20.52;11.35;;;;;;;;;;5005756;28;25070;-63
2024/02/21 09:37:31;;;;;;;27.13;11.63;;;;;;;;;;5007417;28;25079;-63
2024/02/21 09:39:57;;;;;;;20.75;11.82;;;;;;;;;;5005636;28;25063;-63
2024/02/21 09:42:27;;;;;;;23.85;11.07;;;;;;;;;;5006059;28;25084;-64
2024/02/21 09:44:54;;;;;;;19.17;11.07;;;;;;;;;;5002967;28;25090;-65
2024/02/21 09:47:23;;;;;;;19.85;11.85;;;;;;;;;;5007283;28;25147;-62
2024/02/21 09:49:49;;;;;;;16.60;10.75;;;;;;;;;;5002165;28;25104;-62
2024/02/21 09:52:16;;;;;;;15.55;11.13;;;;;;;;;;5007239;28;25092;-63
2024/02/21 09:54:44;;;;;;;15.77;9.70;;;;;;;;;;4990607;28;25062;-65
2024/02/21 09:57:11;;;;;;;16.60;10.52;;;;;;;;;;5004333;28;25073;-63
2024/02/21 09:59:37;;;;;;;28.45;12.05;;;;;;;;;;4999307;28;25083;-63
2024/02/21 10:02:04;;;;;;;17.60;10.05;;;;;;;;;;5008178;28;25107;-65
2024/02/21 10:04:31;;;;;;;12.75;10.30;;;;;;;;;;4999156;28;25154;-66
2024/02/21 10:06:58;;;;;;;12.65;10.38;;;;;;;;;;5006083;28;25093;-65
2024/02/21 10:09:27;;;;;;;18.70;11.15;;;;;;;;;;5005563;28;25053;-64
2024/02/21 10:11:54;;;;;;;15.20;10.95;;;;;;;;;;4991876;28;25060;-66
2024/02/21 10:14:20;;;;;;;14.55;10.20;;;;;;;;;;5018917;28;25125;-64
2024/02/21 10:16:50;;;;;;;14.35;10.00;;;;;;;;;;5016024;28;25107;-63
2024/02/21 10:19:22;;;;;;;14.25;10.23;;;;;;;;;;5013835;28;25058;-66
2024/02/21 10:22:07;;;;;;;13.90;9.57;;;;;;;;;;5016660;28;25062;-63
2024/02/21 10:24:33;;;;;;;11.48;9.02;;;;;;;;;;5006639;28;25096;-65
2024/02/21 10:27:03;;;;;;;13.10;9.02;;;;;;;;;;4998138;28;25074;-65
2024/02/21 10:29:29;;;;;;;13.70;9.13;;;;;;;;;;5008666;28;25160;-64
2024/02/21 10:32:06;;;;;;;13.35;10.35;;;;;;;;;;5006764;28;25080;-64
2024/02/21 10:34:32;;;;;;;16.50;9.75;;;;;;;;;;4987702;28;25107;-64
2024/02/21 10:37:05;;;;;;;16.08;9.90;;;;;;;;;;5007241;28;25164;-65
2024/02/21 10:39:35;;;;;;;16.25;10.27;;;;;;;;;;5004141;28;25093;-65
2024/02/21 10:42:05;;;;;;;17.48;11.05;;;;;;;;;;5002983;28;25077;-64
2024/02/21 10:44:32;;;;;;;16.15;10.45;;;;;;;;;;5005081;28;25134;-64
2024/02/21 10:46:58;;;;;;;16.10;10.93;;;;;;;;;;5007030;28;25068;-64
2024/02/21 10:49:25;;;;;;;22.13;11.25;;;;;;;;;;5002276;28;25077;-65
2024/02/21 10:51:54;;;;;;;16.85;11.20;;;;;;;;;;5006907;28;25055;-64
2024/02/21 10:54:29;;;;;;;18.08;10.90;;;;;;;;;;5000300;28;25104;-63
2024/02/21 10:56:57;;;;;;;14.95;10.18;;;;;;;;;;5002884;28;25061;-66
2024/02/21 10:59:23;;;;;;;22.35;12.13;;;;;;;;;;5004089;28;25065;-65
2024/02/21 11:01:49;;;;;;;16.90;10.52;;;;;;;;;;5000027;28;25067;-64
2024/02/21 11:04:15;;;;;;;12.40;11.00;;;;;;;;;;5003543;28;25145;-64
2024/02/21 11:06:42;;;;;;;15.52;9.77;;;;;;;;;;4994747;28;25078;-64
2024/02/21 11:09:09;;;;;;;16.58;11.20;;;;;;;;;;5000192;28;25096;-63
2024/02/21 11:11:37;;;;;;;14.18;11.57;;;;;;;;;;5001298;28;25114;-64
2024/02/21 11:14:09;;;;;;;15.93;10.82;;;;;;;;;;4998870;28;25058;-65
2024/02/21 11:16:38;;;;;;;13.50;9.77;;;;;;;;;;4990324;28;25151;-65
2024/02/21 11:19:10;;;;;;;14.48;9.88;;;;;;;;;;5005381;28;25123;-65
2024/02/21 11:21:37;;;;;;;15.35;10.43;;;;;;;;;;4993681;28;25060;-66
2024/02/21 11:24:04;;;;;;;18.17;9.77;;;;;;;;;;5004959;28;25175;-66
2024/02/21 11:26:31;;;;;;;14.73;10.20;;;;;;;;;;4987895;28;25098;-64
2024/02/21 11:28:57;;;;;;;19.42;9.65;;;;;;;;;;4999637;28;25179;-66
2024/02/21 11:31:23;;;;;;;13.90;9.70;;;;;;;;;;5003777;28;25071;-63
2024/02/21 11:33:49;;;;;;;14.27;8.45;;;;;;;;;;5000562;28;25145;-65
2024/02/21 11:36:25;;;;;;;13.05;9.23;;;;;;;;;;4985956;28;25067;-64
2024/02/21 11:38:53;;;;;;;14.80;7.60;;;;;;;;;;5001978;28;25081;-64
2024/02/21 11:41:20;;;;;;;10.18;8.32;;;;;;;;;;4999289;28;25072;-65
2024/02/21 11:43:46;;;;;;;12.52;8.57;;;;;;;;;;5002454;28;25131;-64
2024/02/21 11:46:14;;;;;;;16.15;9.38;;;;;;;;;;4988795;28;25081;-63
2024/02/21 11:48:43;;;;;;;13.07;8.23;;;;;;;;;;4996431;28;25054;-63
2024/02/21 11:51:09;;;;;;;17.60;8.43;;;;;;;;;;5000802;28;25072;-65
2024/02/21 11:53:35;;;;;;;12.48;7.68;;;;;;;;;;5000909;28;25066;-64
2024/02/21 11:56:01;;;;;;;14.88;8.48;;;;;;;;;;5004638;28;25070;-65
2024/02/21 11:58:27;;;;;;;16.17;8.20;;;;;;;;;;5005515;28;25077;-65
2024/02/21 12:00:53;;;;;;;10.57;7.80;;;;;;;;;;5002150;28;25155;-63
2024/02/21 12:03:19;;;;;;;10.38;7.85;;;;;;;;;;5000321;28;25099;-64
2024/02/21 12:05:46;;;;;;;12.38;7.30;;;;;;;;;;5006189;28;25078;-67
2024/02/21 12:08:12;;;;;;;11.77;7.80;;;;;;;;;;4998736;28;25061;-66
2024/02/21 12:10:38;;;;;;;11.20;7.90;;;;;;;;;;4989180;28;25163;-64
2024/02/21 12:13:11;;;;;;;17.10;7.50;;;;;;;;;;4987177;28;25060;-66
2024/02/21 12:15:39;;;;;;;12.25;8.38;;;;;;;;;;5001668;28;25047;-65
2024/02/21 12:18:05;;;;;;;14.23;7.32;;;;;;;;;;4994181;28;25120;-66
2024/02/21 12:20:36;;;;;;;15.90;7.22;;;;;;;;;;5000781;28;25127;-65
2024/02/21 12:23:03;;;;;;;14.75;8.18;;;;;;;;;;5004368;28;25082;-69
2024/02/21 12:25:29;;;;;;;14.63;7.90;;;;;;;;;;5003576;28;25083;-67
2024/02/21 12:27:56;;;;;;;15.27;8.35;;;;;;;;;;5002562;28;25080;-66
2024/02/21 12:30:22;;;;;;;14.27;8.25;;;;;;;;;;5002191;28;25055;-65
2024/02/21 12:32:48;;;;;;;14.13;7.88;;;;;;;;;;5008973;28;25141;-66
2024/02/21 12:35:14;;;;;;;16.40;8.02;;;;;;;;;;5007004;28;25063;-65
2024/02/21 12:37:41;;;;;;;12.05;8.93;;;;;;;;;;5010846;28;25085;-66
2024/02/21 12:40:07;;;;;;;10.90;7.95;;;;;;;;;;5016145;28;25080;-67
2024/02/21 12:42:36;;;;;;;14.75;9.15;;;;;;;;;;5021710;28;25064;-65
2024/02/21 12:45:05;;;;;;;17.70;9.30;;;;;;;;;;5024728;28;25134;-67
2024/02/21 12:47:31;;;;;;;11.13;8.77;;;;;;;;;;5018451;28;25096;-66
2024/02/21 12:49:58;;;;;;;16.35;10.32;;;;;;;;;;5011085;28;25068;-67
2024/02/21 12:52:24;;;;;;;15.13;8.88;;;;;;;;;;5006241;28;25083;-65
2024/02/21 12:54:51;;;;;;;14.48;9.55;;;;;;;;;;4991423;28;25111;-65
2024/02/21 12:57:17;;;;;;;15.85;8.38;;;;;;;;;;5007554;28;25051;-65
2024/02/21 12:59:43;;;;;;;14.35;8.35;;;;;;;;;;5006748;28;25144;-65
2024/02/21 13:02:09;;;;;;;13.40;7.97;;;;;;;;;;5008326;28;25065;-66
2024/02/21 13:04:35;;;;;;;17.40;8.57;;;;;;;;;;5005442;28;25064;-66
2024/02/21 13:07:02;;;;;;;15.52;8.77;;;;;;;;;;5003421;28;25114;-66
2024/02/21 13:09:28;;;;;;;15.60;8.15;;;;;;;;;;5002704;28;25102;-64
2024/02/21 13:11:54;;;;;;;16.92;7.97;;;;;;;;;;5002961;28;25060;-65
2024/02/21 13:14:22;;;;;;;10.70;7.53;;;;;;;;;;5001798;28;25162;-67
2024/02/21 13:16:48;;;;;;;11.40;6.97;;;;;;;;;;5000062;28;25163;-65
2024/02/21 13:19:17;;;;;;;13.55;6.90;;;;;;;;;;5000590;28;25085;-66
2024/02/21 13:21:43;;;;;;;12.68;6.88;;;;;;;;;;4986158;28;25061;-67
2024/02/21 13:24:09;;;;;;;16.00;7.10;;;;;;;;;;5001132;28;25144;-64
2024/02/21 13:26:35;;;;;;;14.77;7.72;;;;;;;;;;5001998;28;25095;-65
2024/02/21 13:29:01;;;;;;;11.35;6.15;;;;;;;;;;5007799;28;25138;-66
2024/02/21 13:31:27;;;;;;;12.77;6.72;;;;;;;;;;5007355;28;25077;-65
2024/02/21 13:33:53;;;;;;;13.75;5.72;;;;;;;;;;5004637;28;25073;-66
2024/02/21 13:36:19;;;;;;;11.15;5.32;;;;;;;;;;5007163;28;25082;-65
2024/02/21 13:38:46;;;;;;;12.82;6.20;;;;;;;;;;5003091;28;25064;-65
2024/02/21 13:41:12;;;;;;;14.30;5.90;;;;;;;;;;5007678;28;25148;-66
2024/02/21 13:43:38;;;;;;;11.43;5.63;;;;;;;;;;5005457;28;25095;-66
2024/02/21 13:46:09;;;;;;;13.95;5.90;;;;;;;;;;4987912;28;25071;-66
2024/02/21 13:48:35;;;;;;;13.07;6.22;;;;;;;;;;5006004;28;25138;-65
2024/02/21 13:51:02;;;;;;;16.30;6.50;;;;;;;;;;5004574;28;25054;-64
2024/02/21 13:53:28;;;;;;;15.85;5.80;;;;;;;;;;5011608;28;25091;-66
2024/02/21 13:55:54;;;;;;;12.23;5.90;;;;;;;;;;5004387;28;25068;-64
2024/02/21 13:58:20;;;;;;;10.43;6.15;;;;;;;;;;5004852;28;25064;-65
2024/02/21 14:00:46;;;;;;;12.38;6.03;;;;;;;;;;5007591;28;25088;-64
2024/02/21 14:03:12;;;;;;;11.38;6.13;;;;;;;;;;5008944;28;25111;-65
2024/02/21 14:05:41;;;;;;;10.02;6.32;;;;;;;;;;5009166;28;25078;-67
2024/02/21 14:08:08;;;;;;;12.77;6.22;;;;;;;;;;5008252;28;25084;-66
2024/02/21 14:10:34;;;;;;;8.02;6.07;;;;;;;;;;5006019;28;25084;-65
2024/02/21 14:13:00;;;;;;;13.15;6.15;;;;;;;;;;5002913;28;25063;-67
2024/02/21 14:15:26;;;;;;;12.50;6.50;;;;;;;;;;5000405;28;25073;-68
2024/02/21 14:17:52;;;;;;;15.48;6.82;;;;;;;;;;5005754;28;25155;-67
2024/02/21 14:20:18;;;;;;;10.70;6.60;;;;;;;;;;5002724;28;25075;-67